Time;durP1;ratioP1;P1;durP2;ratioP2;P2;SDS_P1;SDS_P2;PMS_P1;PMS_P2;Temp;Humidity;BMP_temperature;BMP_pressure;BME280_temperature;BME280_humidity;BME280_pressure;Samples;Min_cycle;Max_cycle;Signal;HPM_P1;HPM_P2
2022/12/06 00:02:18;;;;;;;9.23;8.15;;;5.30;99.90;;;;;;5991079;23;20305;-79
2022/12/06 00:04:46;;;;;;;8.40;7.65;;;5.30;99.90;;;;;;5970916;23;20219;-78
2022/12/06 00:07:13;;;;;;;8.75;7.95;;;5.30;99.90;;;;;;5981260;24;20214;-78
2022/12/06 00:09:41;;;;;;;7.75;7.05;;;5.30;99.90;;;;;;5975120;24;20261;-78
2022/12/06 00:12:08;;;;;;;8.90;7.72;;;5.20;99.90;;;;;;5979569;23;20222;-78
2022/12/06 00:14:41;;;;;;;8.50;7.70;;;5.20;99.90;;;;;;5965567;23;20192;-77
2022/12/06 00:17:10;;;;;;;7.88;7.07;;;5.20;99.90;;;;;;5974854;24;20266;-78
2022/12/06 00:19:37;;;;;;;8.07;7.38;;;5.20;99.90;;;;;;5967694;24;20286;-78
2022/12/06 00:22:05;;;;;;;9.85;8.85;;;5.10;99.90;;;;;;5956430;23;20224;-78
2022/12/06 00:24:35;;;;;;;9.48;8.57;;;5.10;99.90;;;;;;5946276;24;20590;-78
2022/12/06 00:27:02;;;;;;;8.00;7.30;;;5.10;99.90;;;;;;5957584;24;20246;-78
2022/12/06 00:29:29;;;;;;;8.85;7.95;;;5.10;99.90;;;;;;5981243;24;20301;-78
2022/12/06 00:31:56;;;;;;;8.32;7.53;;;5.10;99.90;;;;;;5985333;23;20261;-78
2022/12/06 00:34:24;;;;;;;8.75;8.00;;;5.10;99.90;;;;;;5976754;24;20218;-78
2022/12/06 00:36:51;;;;;;;8.07;7.38;;;5.10;99.90;;;;;;5979687;24;20286;-78
2022/12/06 00:39:19;;;;;;;7.90;7.20;;;5.10;99.90;;;;;;5978347;24;20214;-78
2022/12/06 00:41:47;;;;;;;8.15;7.45;;;5.10;99.90;;;;;;5955498;24;20194;-78
2022/12/06 00:44:14;;;;;;;8.68;7.97;;;5.10;99.90;;;;;;5977851;23;20218;-78
2022/12/06 00:46:42;;;;;;;8.68;7.82;;;5.10;99.90;;;;;;5978064;24;20305;-78
2022/12/06 00:49:10;;;;;;;8.75;7.95;;;5.10;99.90;;;;;;5956856;24;20237;-78
2022/12/06 00:51:39;;;;;;;9.25;8.00;;;5.10;99.90;;;;;;5974908;24;20269;-78
2022/12/06 00:54:07;;;;;;;8.57;7.85;;;5.10;99.90;;;;;;5973381;23;20194;-78
2022/12/06 00:56:36;;;;;;;8.90;8.20;;;5.10;99.90;;;;;;5978162;24;20222;-78
2022/12/06 00:59:03;;;;;;;9.10;8.30;;;5.10;99.90;;;;;;5974620;24;20203;-78
2022/12/06 01:01:34;;;;;;;8.23;7.45;;;5.00;99.90;;;;;;5975343;24;20198;-78
2022/12/06 01:04:04;;;;;;;9.85;8.02;;;5.00;99.90;;;;;;5981547;23;20209;-78
2022/12/06 01:06:34;;;;;;;8.70;7.95;;;5.00;99.90;;;;;;5975881;24;20222;-78
2022/12/06 01:09:05;;;;;;;7.80;7.15;;;4.90;99.90;;;;;;5972948;24;20283;-78
2022/12/06 01:11:33;;;;;;;9.13;8.15;;;4.90;99.90;;;;;;5970835;24;20215;-78
2022/12/06 01:14:00;;;;;;;8.00;7.20;;;4.90;99.90;;;;;;5976490;23;20199;-78
2022/12/06 01:16:30;;;;;;;7.28;6.68;;;4.90;99.90;;;;;;5980555;24;20326;-78
2022/12/06 01:18:59;;;;;;;8.27;7.47;;;4.90;99.90;;;;;;5965405;24;20243;-78
2022/12/06 01:21:27;;;;;;;8.15;7.45;;;4.90;99.90;;;;;;5973064;24;20766;-78
2022/12/06 01:23:55;;;;;;;7.80;7.18;;;4.90;99.90;;;;;;5978511;23;20257;-78
2022/12/06 01:26:26;;;;;;;7.97;7.28;;;4.90;99.90;;;;;;5977355;24;20347;-78
2022/12/06 01:28:53;;;;;;;7.32;6.72;;;5.00;99.90;;;;;;5980374;23;20266;-78
2022/12/06 01:31:21;;;;;;;7.97;7.28;;;5.00;99.90;;;;;;5985488;24;20229;-79
2022/12/06 01:33:49;;;;;;;8.90;8.10;;;5.00;99.90;;;;;;5985978;23;20226;-78
2022/12/06 01:36:17;;;;;;;8.30;7.60;;;4.90;99.90;;;;;;5978335;23;20567;-79
2022/12/06 01:38:44;;;;;;;8.60;7.88;;;4.90;99.90;;;;;;5980111;24;20226;-78
2022/12/06 01:41:12;;;;;;;8.00;7.30;;;4.90;99.90;;;;;;5956630;24;20297;-78
2022/12/06 01:43:43;;;;;;;8.93;8.23;;;4.70;99.90;;;;;;5974918;24;20199;-80
2022/12/06 01:46:24;;;;;;;8.68;7.88;;;4.60;99.90;;;;;;5985816;23;20194;-79
2022/12/06 01:48:59;;;;;;;8.90;8.10;;;4.50;99.90;;;;;;5951952;24;20203;-78
2022/12/06 01:51:26;;;;;;;10.48;9.50;;;4.50;99.90;;;;;;5956809;24;20235;-78
2022/12/06 01:53:54;;;;;;;10.57;9.68;;;4.50;99.90;;;;;;5974086;24;20231;-78
2022/12/06 01:56:23;;;;;;;9.93;9.02;;;4.60;99.90;;;;;;5956128;24;20254;-78
2022/12/06 01:58:57;;;;;;;10.05;9.00;;;4.60;99.90;;;;;;5974088;23;20214;-78
2022/12/06 02:01:26;;;;;;;10.40;9.50;;;4.60;99.90;;;;;;5981230;24;20202;-78
2022/12/06 02:03:55;;;;;;;8.93;8.13;;;4.60;99.90;;;;;;5977936;24;20203;-78
2022/12/06 02:06:23;;;;;;;9.75;8.75;;;4.60;99.90;;;;;;5975232;23;20209;-78
2022/12/06 02:08:53;;;;;;;11.25;10.25;;;4.70;99.90;;;;;;5981365;23;20274;-78
2022/12/06 02:11:20;;;;;;;12.30;9.75;;;4.70;99.90;;;;;;5977494;24;20218;-78
2022/12/06 02:13:48;;;;;;;11.15;10.13;;;4.70;99.90;;;;;;5975951;24;20277;-78
2022/12/06 02:16:32;;;;;;;11.50;10.45;;;4.70;99.90;;;;;;5948564;24;20282;-78
2022/12/06 02:19:08;;;;;;;11.70;10.57;;;4.80;99.90;;;;;;5972765;23;20658;-78
2022/12/06 02:21:44;;;;;;;10.88;9.73;;;4.80;99.90;;;;;;5970801;24;20269;-78
2022/12/06 02:24:36;;;;;;;11.73;10.48;;;4.80;99.90;;;;;;5978076;23;20228;-77
2022/12/06 02:27:25;;;;;;;10.40;9.40;;;4.90;99.90;;;;;;5973982;23;20237;-77
2022/12/06 02:30:10;;;;;;;9.77;8.88;;;4.90;99.90;;;;;;5977501;24;20621;-78
2022/12/06 02:32:46;;;;;;;11.05;10.05;;;4.90;99.90;;;;;;5977133;24;20218;-78
2022/12/06 02:35:20;;;;;;;11.98;10.77;;;4.90;99.90;;;;;;5960280;23;20218;-78
2022/12/06 02:37:54;;;;;;;11.18;10.07;;;4.90;99.90;;;;;;5975872;23;20194;-78
2022/12/06 02:40:26;;;;;;;11.95;10.23;;;4.80;99.90;;;;;;5934835;24;20654;-78
2022/12/06 02:42:58;;;;;;;12.77;11.55;;;4.80;99.90;;;;;;5974182;23;20305;-78
2022/12/06 02:45:29;;;;;;;12.02;10.75;;;4.70;99.90;;;;;;5977656;24;20205;-78
2022/12/06 02:48:02;;;;;;;12.77;11.20;;;4.70;99.90;;;;;;5969043;23;20637;-78
2022/12/06 02:50:32;;;;;;;12.52;11.32;;;4.70;99.90;;;;;;5974646;24;20210;-78
2022/12/06 02:53:02;;;;;;;12.32;11.02;;;4.80;99.90;;;;;;5973649;24;20206;-78
2022/12/06 02:55:31;;;;;;;15.15;12.35;;;4.70;99.90;;;;;;5962703;23;20234;-78
2022/12/06 02:57:59;;;;;;;12.90;11.70;;;4.70;99.90;;;;;;5954548;23;20351;-78
2022/12/06 03:00:36;;;;;;;13.57;12.15;;;4.70;99.90;;;;;;5977058;23;20483;-78
2022/12/06 03:03:22;;;;;;;13.63;12.32;;;4.80;99.90;;;;;;5977903;23;20322;-78
2022/12/06 03:06:14;;;;;;;15.82;12.55;;;4.80;99.90;;;;;;5947928;23;20218;-78
2022/12/06 03:08:51;;;;;;;13.13;11.82;;;4.70;99.90;;;;;;5966395;24;20203;-78
2022/12/06 03:11:19;;;;;;;15.60;13.85;;;4.70;99.90;;;;;;5976593;24;20338;-78
2022/12/06 03:13:54;;;;;;;13.90;12.50;;;4.70;99.90;;;;;;5974021;23;20206;-78
2022/12/06 03:16:27;;;;;;;14.15;12.75;;;4.70;99.90;;;;;;5948265;23;20615;-78
2022/12/06 03:19:05;;;;;;;12.80;11.55;;;4.80;99.90;;;;;;5951044;24;20585;-78
2022/12/06 03:21:37;;;;;;;15.70;13.60;;;4.80;99.90;;;;;;5959108;23;20258;-78
2022/12/06 03:24:08;;;;;;;13.88;12.48;;;4.80;99.90;;;;;;5964521;23;20195;-78
2022/12/06 03:26:37;;;;;;;15.82;14.23;;;4.80;99.90;;;;;;5974803;23;20323;-78
2022/12/06 03:29:07;;;;;;;15.40;13.77;;;4.80;99.90;;;;;;5953567;23;20742;-78
2022/12/06 03:31:38;;;;;;;14.80;13.30;;;4.80;99.90;;;;;;5979473;23;20360;-79
2022/12/06 03:34:13;;;;;;;17.77;14.65;;;4.80;99.90;;;;;;5969736;24;20195;-78
2022/12/06 03:36:43;;;;;;;16.65;14.85;;;4.80;99.90;;;;;;5976594;23;20198;-78
2022/12/06 03:39:13;;;;;;;15.55;14.10;;;4.80;99.90;;;;;;5967737;23;20190;-78
2022/12/06 03:41:47;;;;;;;19.27;14.18;;;4.90;99.90;;;;;;5956355;24;20261;-78
2022/12/06 03:44:15;;;;;;;15.85;14.32;;;4.90;99.90;;;;;;5947338;24;20327;-77
2022/12/06 03:46:47;;;;;;;15.00;13.52;;;4.90;99.90;;;;;;5971322;23;20237;-78
2022/12/06 03:49:20;;;;;;;15.93;14.05;;;4.90;99.90;;;;;;5966357;23;20218;-78
2022/12/06 03:51:48;;;;;;;14.07;12.68;;;4.90;99.90;;;;;;5963280;24;20212;-78
2022/12/06 03:54:16;;;;;;;14.18;12.75;;;5.00;99.90;;;;;;5974860;23;20201;-78
2022/12/06 03:56:43;;;;;;;14.60;13.18;;;5.00;99.90;;;;;;5965686;24;20547;-78
2022/12/06 03:59:11;;;;;;;13.63;12.23;;;4.90;99.90;;;;;;5973791;23;20207;-78
2022/12/06 04:01:39;;;;;;;14.32;12.93;;;4.90;99.90;;;;;;5963385;24;20641;-78
2022/12/06 04:04:07;;;;;;;15.15;13.60;;;4.90;99.90;;;;;;5949806;24;20250;-78
2022/12/06 04:06:35;;;;;;;14.68;13.18;;;4.90;99.90;;;;;;5947532;24;20277;-78
2022/12/06 04:11:43;;;;;;;13.85;12.45;;;4.90;99.90;;;;;;5969127;23;20218;-77
2022/12/06 04:14:11;;;;;;;14.68;13.38;;;4.90;99.90;;;;;;5971884;24;20213;-78
2022/12/06 04:19:20;;;;;;;15.45;13.82;;;4.90;99.90;;;;;;5930987;24;20218;-77
2022/12/06 04:24:36;;;;;;;14.57;13.10;;;4.90;99.90;;;;;;5969838;23;20258;-90
2022/12/06 04:38:40;;;;;;;14.75;13.35;;;4.90;99.90;;;;;;5979149;23;20203;-89
2022/12/06 04:41:08;;;;;;;13.27;11.98;;;4.90;99.90;;;;;;5971238;23;20230;-84
2022/12/06 04:43:40;;;;;;;14.57;12.95;;;5.00;99.90;;;;;;5972191;23;20209;-83
2022/12/06 04:46:08;;;;;;;12.75;11.45;;;5.10;99.90;;;;;;5969787;23;20277;-71
2022/12/06 04:48:35;;;;;;;13.82;12.52;;;5.10;99.90;;;;;;5968256;23;20262;-71
2022/12/06 04:51:02;;;;;;;14.05;12.60;;;5.10;99.90;;;;;;5942157;24;20692;-72
2022/12/06 04:53:31;;;;;;;14.45;12.95;;;5.10;99.90;;;;;;5976117;23;20301;-72
2022/12/06 04:55:59;;;;;;;12.38;11.23;;;5.10;99.90;;;;;;5973140;23;20551;-72
2022/12/06 04:58:27;;;;;;;13.75;12.35;;;5.20;99.90;;;;;;5974379;23;20549;-71
2022/12/06 05:00:56;;;;;;;13.73;12.32;;;5.10;99.90;;;;;;5964995;23;20607;-71
2022/12/06 05:03:24;;;;;;;15.20;13.68;;;5.10;99.90;;;;;;5965822;24;20328;-72
2022/12/06 05:05:52;;;;;;;13.85;12.45;;;5.20;99.90;;;;;;5967432;23;20194;-72
2022/12/06 05:08:20;;;;;;;13.95;12.57;;;5.20;99.90;;;;;;5944606;24;20700;-72
2022/12/06 05:10:50;;;;;;;14.45;13.05;;;5.20;99.90;;;;;;5966094;24;20249;-72
2022/12/06 05:13:20;;;;;;;11.90;10.70;;;5.10;99.90;;;;;;5962984;23;20681;-71
2022/12/06 05:15:51;;;;;;;13.93;12.52;;;5.20;99.90;;;;;;5965411;23;20270;-71
2022/12/06 05:18:19;;;;;;;13.82;12.43;;;5.10;99.90;;;;;;5967829;24;20231;-71
2022/12/06 05:20:46;;;;;;;15.07;13.20;;;5.10;99.90;;;;;;5969286;23;20218;-72
2022/12/06 05:23:14;;;;;;;14.10;12.70;;;5.10;99.90;;;;;;5971747;23;20207;-73
2022/12/06 05:25:41;;;;;;;13.85;12.18;;;5.10;99.90;;;;;;5972250;23;20261;-72
2022/12/06 05:28:09;;;;;;;14.63;13.23;;;5.10;99.90;;;;;;5974833;23;20258;-74
2022/12/06 05:30:38;;;;;;;13.70;12.27;;;4.90;99.90;;;;;;5972112;23;20194;-73
2022/12/06 05:33:05;;;;;;;14.15;12.80;;;4.90;99.90;;;;;;5960939;23;20215;-73
2022/12/06 05:35:32;;;;;;;14.98;13.48;;;4.90;99.90;;;;;;5974437;23;20229;-77
2022/12/06 05:37:59;;;;;;;15.00;13.50;;;4.80;99.90;;;;;;5938485;23;20198;-73
2022/12/06 05:40:26;;;;;;;15.25;13.43;;;4.70;99.90;;;;;;5967198;23;20718;-73
2022/12/06 05:42:53;;;;;;;14.07;12.68;;;4.80;99.90;;;;;;5973996;23;20269;-74
2022/12/06 05:45:22;;;;;;;14.70;13.27;;;4.80;99.90;;;;;;5972694;23;21396;-72
2022/12/06 05:47:49;;;;;;;16.00;14.35;;;4.90;99.90;;;;;;5981603;23;20212;-72
2022/12/06 05:50:16;;;;;;;15.38;13.88;;;4.80;99.90;;;;;;5970478;23;20281;-73
2022/12/06 05:52:43;;;;;;;15.52;13.80;;;4.80;99.90;;;;;;5982250;23;20222;-72
2022/12/06 05:55:10;;;;;;;17.02;15.10;;;4.70;99.90;;;;;;5976596;23;20206;-73
2022/12/06 05:57:37;;;;;;;15.88;13.23;;;4.70;99.90;;;;;;5973731;23;20195;-75
2022/12/06 06:00:06;;;;;;;14.85;13.25;;;4.70;99.90;;;;;;5975882;23;20285;-73
2022/12/06 06:02:34;;;;;;;15.00;13.52;;;4.80;99.90;;;;;;5966863;23;20414;-73
2022/12/06 06:05:02;;;;;;;14.70;13.23;;;4.70;99.90;;;;;;5971765;23;20202;-73
2022/12/06 06:07:29;;;;;;;12.52;11.25;;;4.80;99.90;;;;;;5978682;23;20209;-72
2022/12/06 06:09:57;;;;;;;12.77;11.57;;;4.90;99.90;;;;;;5977813;23;20280;-73
2022/12/06 06:12:25;;;;;;;11.20;10.30;;;4.90;99.90;;;;;;5960108;23;20238;-72
2022/12/06 06:14:52;;;;;;;11.57;10.43;;;4.90;99.90;;;;;;5955811;23;20494;-72
2022/12/06 06:17:19;;;;;;;11.23;10.15;;;5.00;99.90;;;;;;5961124;23;20201;-72
2022/12/06 06:19:49;;;;;;;9.45;8.55;;;5.00;99.90;;;;;;5963853;23;20247;-72
2022/12/06 06:22:17;;;;;;;8.60;7.80;;;5.00;99.90;;;;;;5965923;23;20875;-73
2022/12/06 06:24:44;;;;;;;9.70;8.90;;;5.10;99.90;;;;;;5968556;23;20195;-72
2022/12/06 06:27:11;;;;;;;11.13;10.20;;;5.10;99.90;;;;;;5931083;24;20187;-72
2022/12/06 06:29:39;;;;;;;11.00;10.00;;;5.10;99.90;;;;;;5965164;23;20188;-72
2022/12/06 06:32:06;;;;;;;8.07;7.38;;;5.10;99.90;;;;;;5931424;24;21016;-72
2022/12/06 06:34:33;;;;;;;8.70;7.88;;;5.10;99.90;;;;;;5956596;23;20266;-73
2022/12/06 06:37:02;;;;;;;8.93;8.13;;;5.00;99.90;;;;;;5969234;23;20661;-72
2022/12/06 06:39:29;;;;;;;9.43;8.52;;;5.00;99.90;;;;;;5958923;23;20681;-72
2022/12/06 06:41:56;;;;;;;10.57;9.57;;;4.90;99.90;;;;;;5946909;24;20267;-72
2022/12/06 06:44:23;;;;;;;11.70;10.50;;;4.90;99.90;;;;;;5955771;23;20309;-71
2022/12/06 06:46:50;;;;;;;12.70;11.48;;;4.80;99.90;;;;;;5957141;23;20196;-72
2022/12/06 06:49:17;;;;;;;13.63;12.23;;;4.80;99.90;;;;;;5966095;23;20549;-72
2022/12/06 06:51:45;;;;;;;13.65;12.35;;;4.80;99.90;;;;;;5965558;23;20297;-72
2022/12/06 06:54:14;;;;;;;15.57;14.07;;;4.70;99.90;;;;;;5966944;23;20745;-71
2022/12/06 06:56:41;;;;;;;14.05;12.65;;;4.70;99.90;;;;;;5961610;23;20830;-72
2022/12/06 06:59:08;;;;;;;13.15;11.88;;;4.80;99.90;;;;;;5962979;23;20642;-72
2022/12/06 07:01:35;;;;;;;14.88;13.30;;;4.90;99.90;;;;;;5960173;23;20229;-72
2022/12/06 07:04:02;;;;;;;14.80;13.38;;;4.90;99.90;;;;;;5965840;23;20526;-72
2022/12/06 07:06:31;;;;;;;14.20;12.70;;;5.00;99.90;;;;;;5971360;23;20577;-72
2022/12/06 07:08:57;;;;;;;13.30;11.90;;;5.00;99.90;;;;;;5970789;23;20218;-72
2022/12/06 07:11:26;;;;;;;10.95;9.85;;;5.10;99.90;;;;;;5968028;23;20273;-72
2022/12/06 07:13:54;;;;;;;10.52;9.63;;;5.10;99.90;;;;;;5965071;23;20191;-73
2022/12/06 07:16:23;;;;;;;9.20;8.30;;;5.20;99.90;;;;;;5966603;23;20289;-72
2022/12/06 07:18:51;;;;;;;8.63;7.93;;;5.20;99.90;;;;;;5971407;23;20304;-72
2022/12/06 07:21:22;;;;;;;8.43;7.68;;;5.20;99.90;;;;;;5966084;23;20197;-72
2022/12/06 07:23:49;;;;;;;8.48;7.72;;;5.30;99.90;;;;;;5966367;23;20195;-72
2022/12/06 07:26:19;;;;;;;8.10;7.30;;;5.30;99.90;;;;;;5962330;23;20301;-72
2022/12/06 07:28:51;;;;;;;7.95;7.13;;;5.30;99.90;;;;;;5966263;23;20321;-72
2022/12/06 07:31:22;;;;;;;7.30;6.70;;;5.30;99.90;;;;;;5941481;23;21848;-72
2022/12/06 07:33:52;;;;;;;7.65;6.95;;;5.30;99.90;;;;;;5962617;23;20187;-72
2022/12/06 07:36:21;;;;;;;7.60;6.90;;;5.30;99.90;;;;;;5967508;23;20322;-74
2022/12/06 07:38:50;;;;;;;7.97;7.18;;;5.40;99.90;;;;;;5970168;23;20271;-74
2022/12/06 07:46:51;;;;;;;7.95;7.15;;;5.60;99.90;;;;;;5962935;23;20645;-72
2022/12/06 07:49:19;;;;;;;8.48;7.65;;;5.40;99.90;;;;;;5971260;23;20194;-72
2022/12/06 07:51:46;;;;;;;9.32;7.28;;;5.40;99.90;;;;;;5980696;23;20223;-72
2022/12/06 07:54:14;;;;;;;7.68;6.97;;;5.40;99.90;;;;;;5973113;23;20726;-73
2022/12/06 07:56:42;;;;;;;6.90;6.30;;;5.40;99.90;;;;;;5969950;23;20229;-73
2022/12/06 07:59:11;;;;;;;6.63;6.03;;;5.40;99.90;;;;;;5969295;23;20551;-74
2022/12/06 08:01:38;;;;;;;6.95;6.35;;;5.40;99.90;;;;;;5968114;23;20258;-73
2022/12/06 08:04:06;;;;;;;7.30;6.70;;;5.40;99.90;;;;;;5969001;23;20187;-73
2022/12/06 08:06:34;;;;;;;8.38;5.75;;;5.40;99.90;;;;;;5931428;23;20203;-72
2022/12/06 08:09:01;;;;;;;7.97;7.28;;;5.40;99.90;;;;;;5972487;23;20670;-73
2022/12/06 08:11:28;;;;;;;8.65;7.85;;;5.40;99.90;;;;;;5965414;23;20294;-73
2022/12/06 08:13:56;;;;;;;7.82;7.22;;;5.40;99.90;;;;;;5949893;23;20215;-73
2022/12/06 08:16:29;;;;;;;8.25;7.45;;;5.50;99.90;;;;;;6001135;23;20197;-73
2022/12/06 08:18:56;;;;;;;7.25;6.53;;;5.50;99.90;;;;;;5968674;23;20226;-73
2022/12/06 08:21:25;;;;;;;7.78;7.07;;;5.50;99.90;;;;;;5978970;23;20269;-72
2022/12/06 08:23:52;;;;;;;8.27;7.47;;;5.50;99.90;;;;;;5966959;23;20530;-72
2022/12/06 08:26:20;;;;;;;8.15;7.45;;;5.50;99.90;;;;;;5971592;23;20622;-72
2022/12/06 08:28:48;;;;;;;8.27;7.57;;;5.60;99.90;;;;;;5936761;23;20275;-72
2022/12/06 08:31:18;;;;;;;9.57;8.68;;;5.70;99.90;;;;;;5958405;23;20191;-72
2022/12/06 08:33:48;;;;;;;8.90;8.10;;;5.60;99.90;;;;;;5972069;23;20217;-72
2022/12/06 08:36:20;;;;;;;9.75;8.85;;;5.60;99.90;;;;;;5965087;23;20796;-72
2022/12/06 08:38:48;;;;;;;9.60;8.80;;;5.60;99.90;;;;;;5967678;23;20198;-72
2022/12/06 08:44:01;;;;;;;10.48;9.52;;;5.60;99.90;;;;;;5967863;23;20294;-72
2022/12/06 08:46:30;;;;;;;11.95;10.45;;;5.60;99.90;;;;;;5970668;23;20629;-73
2022/12/06 08:49:00;;;;;;;10.48;9.57;;;5.60;99.90;;;;;;5972911;23;20186;-73
2022/12/06 08:51:27;;;;;;;11.18;10.15;;;5.50;99.90;;;;;;5961930;23;20241;-73
2022/12/06 08:53:56;;;;;;;10.80;9.80;;;5.50;99.90;;;;;;5964616;23;20221;-73
2022/12/06 08:56:25;;;;;;;11.35;10.15;;;5.50;99.90;;;;;;5972815;23;20222;-72
2022/12/06 08:58:54;;;;;;;12.20;11.10;;;5.50;99.90;;;;;;5970713;23;20218;-72
2022/12/06 09:01:24;;;;;;;13.30;12.10;;;5.50;99.90;;;;;;5966097;23;20204;-73
2022/12/06 09:03:52;;;;;;;12.65;11.40;;;5.50;99.90;;;;;;5963233;23;20197;-73
2022/12/06 09:06:22;;;;;;;12.50;11.25;;;5.50;99.90;;;;;;5972060;23;20289;-73
2022/12/06 09:08:49;;;;;;;12.00;10.80;;;5.50;99.90;;;;;;5969172;23;20223;-71
2022/12/06 09:11:19;;;;;;;13.68;12.38;;;5.50;99.90;;;;;;5960911;23;20199;-71
2022/12/06 09:13:46;;;;;;;13.00;11.80;;;5.50;99.90;;;;;;5972280;23;20242;-71
2022/12/06 09:16:16;;;;;;;13.65;12.38;;;5.50;99.90;;;;;;5961839;23;20191;-71
2022/12/06 09:18:43;;;;;;;13.60;12.20;;;5.50;99.90;;;;;;5965487;23;20270;-71
2022/12/06 09:21:13;;;;;;;13.70;12.35;;;5.50;99.90;;;;;;5967294;23;20199;-71
2022/12/06 09:23:43;;;;;;;15.13;13.73;;;5.50;99.90;;;;;;5963799;23;20294;-71
2022/12/06 09:26:11;;;;;;;14.60;13.18;;;5.50;99.90;;;;;;5960542;23;20263;-71
2022/12/06 09:28:40;;;;;;;15.77;14.25;;;5.40;99.90;;;;;;5957642;23;20206;-71
2022/12/06 09:31:09;;;;;;;16.15;14.43;;;5.40;99.90;;;;;;5955951;23;21293;-72
2022/12/06 09:33:36;;;;;;;17.85;15.98;;;5.40;99.90;;;;;;5967875;23;20322;-71
2022/12/06 09:36:08;;;;;;;16.65;14.82;;;5.30;99.90;;;;;;5952941;23;20202;-71
2022/12/06 09:38:38;;;;;;;18.02;16.23;;;5.30;99.90;;;;;;5968120;23;20274;-70
2022/12/06 09:41:18;;;;;;;18.13;16.05;;;5.30;99.90;;;;;;5963222;23;20231;-70
2022/12/06 09:43:56;;;;;;;18.77;16.65;;;5.30;99.90;;;;;;5955870;23;20194;-69
2022/12/06 09:46:38;;;;;;;17.23;15.55;;;5.30;99.90;;;;;;5962118;23;20194;-69
2022/12/06 09:49:18;;;;;;;16.55;14.27;;;5.30;99.90;;;;;;5961198;23;20199;-69
2022/12/06 09:52:03;;;;;;;15.95;14.02;;;5.30;99.90;;;;;;5937216;23;20235;-69
2022/12/06 09:54:45;;;;;;;17.85;13.45;;;5.20;99.90;;;;;;5967280;23;20669;-70
2022/12/06 09:57:19;;;;;;;16.05;13.38;;;5.20;99.90;;;;;;5955528;23;20291;-70
2022/12/06 09:59:56;;;;;;;15.15;13.13;;;5.20;99.90;;;;;;5969603;23;20187;-69
2022/12/06 10:03:00;;;;;;;13.85;12.38;;;5.20;99.90;;;;;;5967500;23;20257;-69
2022/12/06 10:05:41;;;;;;;13.20;11.80;;;5.10;99.90;;;;;;5960596;23;20202;-70
2022/12/06 10:08:23;;;;;;;14.63;13.13;;;5.00;99.90;;;;;;5967428;23;20211;-70
2022/12/06 10:10:57;;;;;;;15.35;13.75;;;4.90;99.90;;;;;;5960510;23;20677;-69
2022/12/06 10:13:44;;;;;;;13.93;12.52;;;4.80;99.90;;;;;;5964203;24;20646;-70
2022/12/06 10:16:26;;;;;;;14.68;12.63;;;4.70;99.90;;;;;;5974050;24;20277;-70
2022/12/06 10:19:13;;;;;;;13.45;12.02;;;4.70;99.90;;;;;;5971905;23;20198;-70
2022/12/06 10:21:53;;;;;;;13.70;11.93;;;4.70;99.90;;;;;;5974432;23;20290;-70
2022/12/06 10:24:44;;;;;;;14.05;11.95;;;4.70;99.90;;;;;;5953153;23;20191;-70
2022/12/06 10:27:15;;;;;;;14.02;12.52;;;4.70;99.90;;;;;;5964160;23;20194;-71
2022/12/06 10:29:54;;;;;;;10.23;9.23;;;4.70;99.90;;;;;;5964150;23;20226;-71
2022/12/06 10:32:38;;;;;;;11.13;9.88;;;4.70;99.90;;;;;;5971943;23;20202;-70
2022/12/06 10:35:17;;;;;;;9.98;8.93;;;4.70;99.90;;;;;;5964180;23;20626;-71
2022/12/06 10:37:57;;;;;;;10.55;9.45;;;4.80;99.90;;;;;;5975190;23;20293;-70
2022/12/06 10:40:29;;;;;;;10.63;9.63;;;4.70;99.90;;;;;;5972017;23;20229;-70
2022/12/06 10:43:04;;;;;;;11.70;10.50;;;4.80;99.90;;;;;;5969018;23;20641;-70
2022/12/06 10:48:35;;;;;;;13.63;11.43;;;4.80;99.90;;;;;;5965772;23;20198;-70
2022/12/06 10:51:07;;;;;;;12.23;11.02;;;4.80;99.90;;;;;;5948570;23;20203;-70
2022/12/06 10:53:43;;;;;;;11.50;10.30;;;4.80;99.90;;;;;;5985400;23;20542;-70
2022/12/06 10:56:17;;;;;;;12.07;10.57;;;4.80;99.90;;;;;;5964468;24;20533;-70
2022/12/06 10:58:51;;;;;;;11.65;10.00;;;4.80;99.90;;;;;;5961547;23;20195;-71
2022/12/06 11:01:24;;;;;;;9.75;8.85;;;4.80;99.90;;;;;;5964081;23;20645;-71
2022/12/06 11:03:58;;;;;;;9.10;8.15;;;4.80;99.90;;;;;;5954517;23;20183;-72
2022/12/06 11:06:32;;;;;;;9.43;8.50;;;4.80;99.90;;;;;;5958883;23;20326;-72
2022/12/06 11:09:05;;;;;;;9.68;8.10;;;4.80;99.90;;;;;;5966388;23;20212;-71
2022/12/06 11:11:36;;;;;;;8.95;8.10;;;4.80;99.90;;;;;;5955813;23;20223;-72
2022/12/06 11:14:13;;;;;;;8.45;7.60;;;4.80;99.90;;;;;;5967462;23;20306;-72
2022/12/06 11:16:45;;;;;;;8.80;7.90;;;4.80;99.90;;;;;;5969195;23;20214;-72
2022/12/06 11:19:23;;;;;;;8.90;8.10;;;4.80;99.90;;;;;;5974361;23;20210;-71
2022/12/06 11:21:55;;;;;;;16.98;15.48;;;4.80;99.90;;;;;;5974111;24;20589;-71
2022/12/06 11:24:28;;;;;;;8.63;7.80;;;4.80;99.90;;;;;;5970704;23;20615;-71
2022/12/06 11:27:04;;;;;;;10.68;8.07;;;4.80;99.90;;;;;;5971806;23;20195;-69
2022/12/06 11:29:31;;;;;;;9.95;8.35;;;4.80;99.90;;;;;;5972772;23;20289;-71
2022/12/06 11:32:02;;;;;;;8.23;7.43;;;4.80;99.90;;;;;;5972909;24;20203;-71
2022/12/06 11:34:33;;;;;;;8.95;8.05;;;4.90;99.90;;;;;;5970461;23;20218;-70
2022/12/06 11:37:02;;;;;;;7.65;6.95;;;4.90;99.90;;;;;;5973393;23;20282;-69
2022/12/06 11:39:31;;;;;;;6.38;5.85;;;4.90;99.90;;;;;;5954641;23;20637;-69
2022/12/06 11:42:01;;;;;;;7.55;5.85;;;4.80;99.90;;;;;;5963229;23;20795;-70
2022/12/06 11:44:37;;;;;;;6.60;6.00;;;4.80;99.90;;;;;;5962707;23;20653;-71
2022/12/06 11:47:07;;;;;;;6.43;5.82;;;4.80;99.90;;;;;;5969349;23;20225;-72
2022/12/06 11:49:38;;;;;;;8.93;7.85;;;4.80;99.90;;;;;;5964909;23;20725;-72
2022/12/06 11:52:09;;;;;;;7.10;6.50;;;4.70;99.90;;;;;;5969791;23;20626;-70
2022/12/06 11:54:42;;;;;;;8.00;7.30;;;4.80;99.90;;;;;;5952127;23;20301;-72
2022/12/06 11:57:16;;;;;;;7.00;6.40;;;4.70;99.90;;;;;;5962648;23;20195;-70
2022/12/06 12:00:13;;;;;;;6.45;5.85;;;4.70;99.90;;;;;;5968022;23;20246;-70
2022/12/06 12:02:43;;;;;;;6.32;5.72;;;4.70;99.90;;;;;;5963210;23;20199;-70
2022/12/06 12:05:19;;;;;;;5.97;5.47;;;4.70;99.90;;;;;;5966553;23;20195;-71
2022/12/06 12:07:50;;;;;;;5.82;5.32;;;4.60;99.90;;;;;;5972361;23;20502;-71
2022/12/06 12:10:32;;;;;;;6.13;5.63;;;4.70;99.90;;;;;;5947855;23;20222;-71
2022/12/06 12:13:46;;;;;;;6.28;5.78;;;4.70;99.90;;;;;;5955133;23;20192;-71
2022/12/06 12:16:17;;;;;;;6.85;6.25;;;4.70;99.90;;;;;;5964745;23;20195;-71
2022/12/06 12:18:55;;;;;;;6.93;5.45;;;4.70;99.90;;;;;;5972328;23;20195;-71
2022/12/06 12:21:36;;;;;;;5.60;5.10;;;4.70;99.90;;;;;;5966881;23;20518;-71
2022/12/06 12:24:05;;;;;;;6.00;5.50;;;4.60;99.90;;;;;;5969918;23;20245;-71
2022/12/06 12:26:37;;;;;;;5.45;4.95;;;4.60;99.90;;;;;;5954301;23;20230;-71
2022/12/06 12:29:15;;;;;;;6.55;4.90;;;4.60;99.90;;;;;;5963103;23;20191;-71
2022/12/06 12:31:51;;;;;;;4.90;4.45;;;4.60;99.90;;;;;;5958148;23;20205;-71
2022/12/06 12:34:22;;;;;;;4.55;4.20;;;4.60;99.90;;;;;;5966973;23;20218;-72
2022/12/06 12:36:52;;;;;;;5.10;4.70;;;4.60;99.90;;;;;;5975643;23;20187;-76
2022/12/06 12:39:32;;;;;;;5.45;4.50;;;4.70;99.90;;;;;;5973437;23;20214;-76
2022/12/06 12:42:01;;;;;;;5.10;4.63;;;4.60;99.90;;;;;;5946748;23;20206;-75
2022/12/06 12:44:31;;;;;;;5.05;4.65;;;4.60;99.90;;;;;;5976007;23;20282;-76
2022/12/06 12:47:00;;;;;;;4.82;4.43;;;4.60;99.90;;;;;;5959525;23;20196;-76
2022/12/06 12:49:32;;;;;;;6.05;4.60;;;4.60;99.90;;;;;;5953123;23;20739;-75
2022/12/06 12:52:00;;;;;;;6.43;5.40;;;4.70;99.90;;;;;;5953308;23;20199;-76
2022/12/06 12:54:31;;;;;;;5.25;4.75;;;4.70;99.90;;;;;;5928553;24;20215;-76
2022/12/06 12:57:00;;;;;;;5.60;3.92;;;4.70;99.90;;;;;;5954042;23;20198;-76
2022/12/06 12:59:32;;;;;;;4.93;4.50;;;4.70;99.90;;;;;;5953114;23;20652;-76
2022/12/06 13:02:11;;;;;;;4.97;4.57;;;4.70;99.90;;;;;;5956221;23;20245;-76
2022/12/06 13:04:44;;;;;;;7.13;4.70;;;4.70;99.90;;;;;;5937895;24;20191;-76
2022/12/06 13:07:30;;;;;;;5.10;4.38;;;4.70;99.90;;;;;;5953600;23;20202;-75
2022/12/06 13:10:02;;;;;;;7.20;4.50;;;4.70;99.90;;;;;;5961597;23;20187;-75
2022/12/06 13:12:34;;;;;;;5.30;4.50;;;4.80;99.90;;;;;;5959702;24;20191;-75
2022/12/06 13:15:06;;;;;;;6.82;4.90;;;4.70;99.90;;;;;;5954306;23;20332;-75
2022/12/06 13:17:37;;;;;;;4.90;4.50;;;4.80;99.90;;;;;;5955720;23;20195;-75
2022/12/06 13:20:20;;;;;;;4.90;4.50;;;4.80;99.90;;;;;;5952807;23;20325;-75
2022/12/06 13:22:51;;;;;;;5.57;5.07;;;4.80;99.90;;;;;;5953998;23;20221;-71
2022/12/06 13:25:18;;;;;;;5.13;4.70;;;4.80;99.90;;;;;;5966725;23;20585;-71
2022/12/06 13:27:48;;;;;;;5.63;5.00;;;4.80;99.90;;;;;;5975877;24;20205;-71
2022/12/06 13:30:18;;;;;;;5.45;4.93;;;4.80;99.90;;;;;;5968890;23;20522;-71
2022/12/06 13:32:51;;;;;;;5.88;5.38;;;4.80;99.90;;;;;;5984984;23;20208;-71
2022/12/06 13:35:25;;;;;;;5.45;5.05;;;4.90;99.90;;;;;;5975196;23;20234;-70
2022/12/06 13:37:55;;;;;;;5.70;5.20;;;4.90;99.90;;;;;;5974836;24;20224;-70
2022/12/06 13:40:45;;;;;;;5.60;5.13;;;4.90;99.90;;;;;;5963202;24;20227;-70